Time;durP1;ratioP1;P1;durP2;ratioP2;P2;SDS_P1;SDS_P2;PMS_P1;PMS_P2;Temp;Humidity;BMP_temperature;BMP_pressure;BME280_temperature;BME280_humidity;BME280_pressure;Samples;Min_cycle;Max_cycle;Signal;HPM_P1;HPM_P2
2023/03/12 00:00:44;;;;;;;0.50;0.50;;;-0.40;99.90;;;;;;6216000;23;20008;-75
2023/03/12 00:03:10;;;;;;;0.40;0.40;;;-0.40;99.90;;;;;;6215920;23;20012;-75
2023/03/12 00:05:37;;;;;;;0.50;0.50;;;-0.50;99.90;;;;;;6217777;23;20012;-75
2023/03/12 00:08:03;;;;;;;0.60;0.60;;;-0.40;99.90;;;;;;6217690;23;20391;-75
2023/03/12 00:10:29;;;;;;;0.60;0.60;;;-0.40;99.90;;;;;;6217469;23;20434;-75
2023/03/12 00:12:55;;;;;;;0.57;0.57;;;-0.40;99.90;;;;;;6215576;23;20046;-75
2023/03/12 00:15:21;;;;;;;0.60;0.60;;;-0.50;99.90;;;;;;6217191;23;20435;-75
2023/03/12 00:17:47;;;;;;;0.50;0.50;;;-0.60;99.90;;;;;;6217391;23;20015;-76
2023/03/12 00:20:12;;;;;;;0.60;0.60;;;-0.50;99.90;;;;;;6215715;23;20055;-75
2023/03/12 00:22:38;;;;;;;0.60;0.60;;;-0.50;99.90;;;;;;6217473;23;20016;-75
2023/03/12 00:25:07;;;;;;;0.60;0.60;;;-0.60;99.90;;;;;;6215871;23;20031;-75
2023/03/12 00:27:32;;;;;;;0.50;0.50;;;-0.50;99.90;;;;;;6216377;23;20008;-75
2023/03/12 00:29:58;;;;;;;0.50;0.50;;;-0.60;99.90;;;;;;6216139;23;20453;-75
2023/03/12 00:32:24;;;;;;;0.60;0.60;;;-0.60;99.90;;;;;;6241220;23;20021;-75
2023/03/12 00:34:54;;;;;;;0.55;0.55;;;-0.60;99.90;;;;;;6217268;23;20075;-75
2023/03/12 00:37:21;;;;;;;0.60;0.60;;;-0.70;99.90;;;;;;6215347;23;20381;-75
2023/03/12 00:39:47;;;;;;;0.60;0.60;;;-0.80;99.90;;;;;;6214681;23;20017;-75
2023/03/12 00:42:13;;;;;;;0.60;0.60;;;-0.90;99.90;;;;;;6190307;23;20092;-75
2023/03/12 00:44:39;;;;;;;0.40;0.40;;;-0.80;99.90;;;;;;6215366;23;20013;-75
2023/03/12 00:47:05;;;;;;;0.50;0.50;;;-0.80;99.90;;;;;;6215438;23;20121;-75
2023/03/12 00:49:31;;;;;;;0.50;0.50;;;-0.60;99.90;;;;;;6216970;23;20091;-76
2023/03/12 00:51:56;;;;;;;0.50;0.50;;;-0.60;99.90;;;;;;6215168;23;20034;-75
2023/03/12 00:54:22;;;;;;;0.50;0.50;;;-0.60;99.90;;;;;;6216736;23;20012;-75
2023/03/12 00:56:48;;;;;;;0.60;0.60;;;-0.40;99.90;;;;;;6215175;23;20013;-74
2023/03/12 00:59:14;;;;;;;0.57;0.57;;;-0.50;99.90;;;;;;6215123;23;20017;-74
2023/03/12 01:01:40;;;;;;;0.40;0.40;;;-0.60;99.90;;;;;;6216860;23;20079;-75
2023/03/12 01:04:05;;;;;;;0.40;0.40;;;-0.80;99.90;;;;;;6215081;23;20024;-75
2023/03/12 01:06:31;;;;;;;0.40;0.40;;;-1.00;99.90;;;;;;6240750;23;20311;-75
2023/03/12 01:08:57;;;;;;;0.52;0.52;;;-1.10;99.90;;;;;;6216867;23;20502;-75
2023/03/12 01:11:22;;;;;;;0.50;0.50;;;-1.20;99.90;;;;;;6215028;23;20009;-75
2023/03/12 01:13:48;;;;;;;0.50;0.50;;;-1.40;99.90;;;;;;6217011;23;20502;-75
2023/03/12 01:16:14;;;;;;;0.60;0.60;;;-1.50;99.90;;;;;;6215216;23;20524;-75
2023/03/12 01:18:40;;;;;;;0.40;0.40;;;-1.40;99.90;;;;;;6189945;23;20083;-75
2023/03/12 01:21:06;;;;;;;0.60;0.60;;;-1.50;99.90;;;;;;6215079;23;20013;-75
2023/03/12 01:23:32;;;;;;;0.60;0.60;;;-1.50;99.90;;;;;;6215113;23;20008;-75
2023/03/12 01:26:00;;;;;;;0.60;0.60;;;-1.60;99.90;;;;;;6217092;23;20329;-75
2023/03/12 01:28:26;;;;;;;0.60;0.60;;;-1.60;99.90;;;;;;6189970;23;20441;-74
2023/03/12 01:30:55;;;;;;;0.50;0.50;;;-1.60;99.90;;;;;;6216889;23;20012;-75
2023/03/12 01:33:23;;;;;;;0.50;0.50;;;-1.60;99.90;;;;;;6214512;23;20012;-75
2023/03/12 01:35:49;;;;;;;0.43;0.43;;;-1.70;99.90;;;;;;6214828;23;20012;-75
2023/03/12 01:38:21;;;;;;;0.47;0.47;;;-1.60;99.90;;;;;;6216681;23;20059;-74
2023/03/12 01:40:53;;;;;;;0.60;0.60;;;-1.50;99.90;;;;;;6238829;23;20020;-74
2023/03/12 01:43:35;;;;;;;0.50;0.50;;;-1.40;99.90;;;;;;6216605;23;20024;-74
2023/03/12 01:46:14;;;;;;;0.60;0.60;;;-1.50;99.90;;;;;;6189582;23;20083;-75
2023/03/12 01:48:48;;;;;;;0.70;0.70;;;-1.40;99.90;;;;;;6216491;23;20087;-75
2023/03/12 01:51:16;;;;;;;0.57;0.57;;;-1.40;99.90;;;;;;6214437;23;20446;-75
2023/03/12 01:53:45;;;;;;;0.60;0.60;;;-1.40;99.90;;;;;;6216263;23;20040;-74
2023/03/12 01:56:13;;;;;;;0.60;0.60;;;-1.50;99.90;;;;;;6214741;23;20020;-75
2023/03/12 01:58:45;;;;;;;0.60;0.60;;;-1.50;99.90;;;;;;6214590;23;20050;-75
2023/03/12 02:01:12;;;;;;;0.50;0.50;;;-1.40;99.90;;;;;;6216738;23;20008;-75
2023/03/12 02:03:39;;;;;;;0.57;0.57;;;-1.40;99.90;;;;;;6216302;23;20013;-76
2023/03/12 02:06:12;;;;;;;0.52;0.52;;;-1.40;99.90;;;;;;6189738;23;20075;-75
2023/03/12 02:08:42;;;;;;;0.50;0.50;;;-1.40;99.90;;;;;;6214578;23;20334;-75
2023/03/12 02:11:08;;;;;;;0.50;0.50;;;-1.30;99.90;;;;;;6216784;23;20023;-75
2023/03/12 02:13:35;;;;;;;0.60;0.60;;;-1.30;99.90;;;;;;6239879;23;20116;-74
2023/03/12 02:16:01;;;;;;;0.60;0.60;;;-1.40;99.90;;;;;;6214625;23;20090;-75
2023/03/12 02:18:27;;;;;;;0.45;0.45;;;-1.30;99.90;;;;;;6214879;23;20012;-75
2023/03/12 02:21:03;;;;;;;0.50;0.50;;;-1.30;99.90;;;;;;6214375;23;20027;-74
2023/03/12 02:23:43;;;;;;;0.50;0.50;;;-1.10;99.90;;;;;;6214440;23;20016;-75
2023/03/12 02:26:09;;;;;;;;;;;-1.00;99.90;;;;;;6216386;23;20013;-74
2023/03/12 02:28:41;;;;;;;0.50;0.50;;;-0.80;99.90;;;;;;6214381;23;19923;-74
2023/03/12 02:31:07;;;;;;;0.60;0.60;;;-0.70;99.90;;;;;;6214576;23;20059;-74
2023/03/12 02:33:33;;;;;;;0.50;0.50;;;-0.70;99.90;;;;;;6214387;23;20426;-75
2023/03/12 02:35:59;;;;;;;0.40;0.40;;;-0.60;99.90;;;;;;6216051;23;20019;-75
2023/03/12 02:38:44;;;;;;;0.50;0.50;;;-0.50;99.90;;;;;;6215816;23;20008;-75
2023/03/12 02:41:24;;;;;;;0.40;0.40;;;-0.50;99.90;;;;;;6214383;23;20005;-74
2023/03/12 02:44:16;;;;;;;0.57;0.57;;;-0.50;99.90;;;;;;6216342;23;20044;-74
2023/03/12 02:46:45;;;;;;;0.40;0.40;;;-0.70;99.90;;;;;;6239943;23;20012;-74
2023/03/12 02:49:12;;;;;;;0.60;0.60;;;-0.60;99.90;;;;;;6189267;23;20441;-74
2023/03/12 02:51:41;;;;;;;0.55;0.55;;;-0.60;99.90;;;;;;6214350;23;20090;-75
2023/03/12 02:54:07;;;;;;;0.50;0.50;;;-0.70;99.90;;;;;;6214121;23;20013;-74
2023/03/12 02:56:33;;;;;;;0.55;0.55;;;-0.70;99.90;;;;;;6214338;23;20341;-75
2023/03/12 02:58:59;;;;;;;0.50;0.50;;;-0.70;99.90;;;;;;6214242;23;20009;-74
2023/03/12 03:01:25;;;;;;;0.50;0.50;;;-0.70;99.90;;;;;;6216351;23;20172;-74
2023/03/12 03:03:52;;;;;;;0.50;0.50;;;-0.70;99.90;;;;;;6216279;23;20470;-74
2023/03/12 03:06:17;;;;;;;0.40;0.40;;;-0.80;99.90;;;;;;6191108;23;20445;-74
2023/03/12 03:08:43;;;;;;;0.40;0.40;;;-0.80;99.90;;;;;;6191022;23;20016;-75
2023/03/12 03:11:09;;;;;;;0.50;0.50;;;-0.80;99.90;;;;;;6191072;23;20013;-74
2023/03/12 03:13:35;;;;;;;0.47;0.47;;;-0.70;99.90;;;;;;6216245;23;20207;-74
2023/03/12 03:16:02;;;;;;;0.47;0.47;;;-0.60;99.90;;;;;;6218422;23;20012;-75
2023/03/12 03:18:29;;;;;;;0.47;0.47;;;-0.70;99.90;;;;;;6218263;23;20330;-74
2023/03/12 03:21:09;;;;;;;0.50;0.50;;;-0.60;99.90;;;;;;6217853;23;20128;-75
2023/03/12 03:23:35;;;;;;;0.50;0.50;;;-0.50;99.90;;;;;;6218292;23;20078;-75
2023/03/12 03:26:01;;;;;;;0.57;0.57;;;-0.50;99.90;;;;;;6218255;23;20009;-75
2023/03/12 03:28:28;;;;;;;0.60;0.60;;;-0.40;99.90;;;;;;6216264;23;20005;-75
2023/03/12 03:31:00;;;;;;;0.50;0.50;;;-0.20;99.90;;;;;;6191098;23;20019;-75
2023/03/12 03:33:27;;;;;;;0.60;0.60;;;-0.20;99.90;;;;;;6216232;23;20052;-75
2023/03/12 03:35:54;;;;;;;0.50;0.50;;;-0.10;99.90;;;;;;6216053;23;20342;-75
2023/03/12 03:38:21;;;;;;;0.50;0.50;;;0.00;99.90;;;;;;6216006;23;20012;-75
2023/03/12 03:40:47;;;;;;;0.40;0.40;;;0.10;99.90;;;;;;6190940;23;20020;-74
2023/03/12 03:43:12;;;;;;;0.60;0.60;;;0.20;99.90;;;;;;6215932;23;20067;-74
2023/03/12 03:45:38;;;;;;;0.50;0.50;;;0.20;99.90;;;;;;6215956;23;20346;-74
2023/03/12 03:48:04;;;;;;;0.60;0.60;;;0.30;99.90;;;;;;6217833;23;20008;-74
2023/03/12 03:50:30;;;;;;;0.50;0.50;;;0.40;99.90;;;;;;6216172;23;20016;-74
2023/03/12 03:52:56;;;;;;;0.55;0.55;;;0.30;99.90;;;;;;6190761;23;20017;-74
2023/03/12 03:55:22;;;;;;;0.50;0.50;;;0.30;99.90;;;;;;6217154;23;20403;-74
2023/03/12 03:57:48;;;;;;;0.52;0.52;;;0.40;99.90;;;;;;6215771;23;20017;-75
2023/03/12 04:00:16;;;;;;;0.50;0.50;;;0.40;99.90;;;;;;6241368;23;20012;-74
2023/03/12 04:02:43;;;;;;;0.50;0.50;;;0.40;99.90;;;;;;6217728;23;20008;-74
2023/03/12 04:05:09;;;;;;;0.60;0.60;;;0.50;99.90;;;;;;6215763;23;20023;-74
2023/03/12 04:07:35;;;;;;;0.50;0.50;;;0.50;99.90;;;;;;6216207;23;20017;-74
2023/03/12 04:10:02;;;;;;;0.40;0.40;;;0.60;99.90;;;;;;6215491;23;20020;-75
2023/03/12 04:12:28;;;;;;;0.50;0.50;;;0.60;99.90;;;;;;6217500;23;20433;-75
2023/03/12 04:14:54;;;;;;;0.60;0.60;;;0.50;99.90;;;;;;6217505;23;20326;-75
2023/03/12 04:17:21;;;;;;;0.40;0.40;;;0.60;99.90;;;;;;6217663;23;20338;-75
2023/03/12 04:19:47;;;;;;;0.50;0.50;;;0.60;99.90;;;;;;6217068;23;20047;-75
2023/03/12 04:22:12;;;;;;;0.60;0.60;;;0.60;99.90;;;;;;6217456;23;20023;-75
2023/03/12 04:24:38;;;;;;;0.50;0.50;;;0.60;99.90;;;;;;6241231;23;20017;-75
2023/03/12 04:27:04;;;;;;;0.50;0.50;;;0.60;99.90;;;;;;6241130;23;20020;-75
2023/03/12 04:29:30;;;;;;;0.60;0.60;;;0.60;99.90;;;;;;6190342;23;20088;-75
2023/03/12 04:31:55;;;;;;;0.50;0.50;;;0.70;99.90;;;;;;6217485;23;20106;-75
2023/03/12 04:34:21;;;;;;;0.50;0.50;;;0.70;99.90;;;;;;6217259;23;20008;-74
2023/03/12 04:36:47;;;;;;;0.60;0.60;;;0.70;99.90;;;;;;6215360;23;20441;-74
2023/03/12 04:39:16;;;;;;;0.60;0.60;;;0.70;99.90;;;;;;6215390;23;20049;-75
2023/03/12 04:41:42;;;;;;;0.50;0.50;;;0.70;99.90;;;;;;6215417;23;20384;-75
2023/03/12 04:44:07;;;;;;;0.40;0.40;;;0.80;99.90;;;;;;6216824;23;20048;-75
2023/03/12 04:46:33;;;;;;;0.50;0.50;;;0.80;99.90;;;;;;6215769;23;20048;-75
2023/03/12 04:49:01;;;;;;;0.40;0.40;;;0.80;99.90;;;;;;6215162;23;20067;-75
2023/03/12 04:51:28;;;;;;;0.40;0.40;;;0.80;99.90;;;;;;6217136;23;20083;-74
2023/03/12 04:53:54;;;;;;;0.60;0.60;;;0.70;99.90;;;;;;6216538;23;20024;-74
2023/03/12 04:56:20;;;;;;;0.50;0.50;;;0.80;99.90;;;;;;6215226;23;20047;-75
2023/03/12 04:58:45;;;;;;;0.50;0.50;;;0.80;99.90;;;;;;6215202;23;20017;-74
2023/03/12 05:01:29;;;;;;;0.55;0.55;;;0.80;99.90;;;;;;6215604;23;20381;-75
2023/03/12 05:03:55;;;;;;;0.50;0.50;;;0.80;99.90;;;;;;6190059;23;20465;-75
2023/03/12 05:06:22;;;;;;;0.50;0.50;;;0.70;99.90;;;;;;6215537;23;20017;-75
2023/03/12 05:08:48;;;;;;;0.40;0.40;;;0.70;99.90;;;;;;6214974;23;20039;-75
2023/03/12 05:11:14;;;;;;;0.50;0.50;;;0.70;99.90;;;;;;6215071;23;20069;-74
2023/03/12 05:13:40;;;;;;;0.52;0.52;;;0.70;99.90;;;;;;6216986;23;20005;-75
2023/03/12 05:16:07;;;;;;;0.45;0.45;;;0.80;99.90;;;;;;6215227;23;20385;-75
2023/03/12 05:18:33;;;;;;;0.40;0.40;;;0.70;99.90;;;;;;6216478;23;20009;-75
2023/03/12 05:21:05;;;;;;;0.52;0.52;;;0.70;99.90;;;;;;6189947;23;20020;-75
2023/03/12 05:23:32;;;;;;;0.55;0.55;;;0.70;99.90;;;;;;6214987;23;20018;-75
2023/03/12 05:25:58;;;;;;;0.60;0.60;;;0.80;99.90;;;;;;6214579;23;20013;-75
2023/03/12 05:28:27;;;;;;;0.50;0.50;;;0.80;99.90;;;;;;6215307;23;20074;-74
2023/03/12 05:31:00;;;;;;;0.50;0.50;;;0.80;99.90;;;;;;6189777;23;20024;-74
2023/03/12 05:33:27;;;;;;;0.50;0.50;;;0.80;99.90;;;;;;6214699;23;20549;-74
2023/03/12 05:35:53;;;;;;;0.50;0.50;;;0.80;99.90;;;;;;6214670;23;20013;-75
2023/03/12 05:38:18;;;;;;;0.60;0.60;;;0.80;99.90;;;;;;6214737;23;20008;-74
2023/03/12 05:40:58;;;;;;;0.60;0.60;;;0.70;99.90;;;;;;6214681;23;20013;-74
2023/03/12 05:43:24;;;;;;;0.60;0.60;;;0.80;99.90;;;;;;6214599;23;20013;-75
2023/03/12 05:45:50;;;;;;;0.55;0.55;;;0.80;99.90;;;;;;6214800;23;20040;-75
2023/03/12 05:48:16;;;;;;;0.40;0.40;;;0.90;99.90;;;;;;6215084;23;20020;-74
2023/03/12 05:50:42;;;;;;;0.43;0.43;;;0.80;99.90;;;;;;6214676;23;20008;-75
2023/03/12 05:53:08;;;;;;;0.50;0.50;;;0.80;99.90;;;;;;6189650;23;20020;-75
2023/03/12 05:55:38;;;;;;;0.40;0.40;;;0.90;99.90;;;;;;6214429;23;20009;-74
2023/03/12 05:58:05;;;;;;;0.50;0.50;;;0.90;99.90;;;;;;6216125;23;20016;-74
2023/03/12 06:00:32;;;;;;;0.50;0.50;;;0.90;99.90;;;;;;6214640;23;20337;-75
2023/03/12 06:02:57;;;;;;;0.50;0.50;;;0.90;99.90;;;;;;6240125;23;20084;-74
2023/03/12 06:05:23;;;;;;;0.40;0.40;;;1.00;99.90;;;;;;6214663;23;20016;-75
2023/03/12 06:07:49;;;;;;;0.50;0.50;;;0.90;99.90;;;;;;6189522;23;20016;-74
2023/03/12 06:10:15;;;;;;;0.40;0.40;;;0.90;99.90;;;;;;6216463;23;20009;-74
2023/03/12 06:12:40;;;;;;;0.50;0.50;;;1.00;99.90;;;;;;6216558;23;20013;-75
2023/03/12 06:15:06;;;;;;;0.43;0.43;;;0.90;99.90;;;;;;6214692;23;20338;-75
2023/03/12 06:17:32;;;;;;;0.60;0.60;;;1.00;99.90;;;;;;6240015;23;20012;-75
2023/03/12 06:19:58;;;;;;;0.50;0.50;;;1.00;99.90;;;;;;6216404;23;20062;-74
2023/03/12 06:22:24;;;;;;;0.55;0.55;;;1.10;99.90;;;;;;6214562;23;20088;-74
2023/03/12 06:24:49;;;;;;;0.52;0.52;;;1.10;99.90;;;;;;6214595;23;20048;-75
2023/03/12 06:27:17;;;;;;;0.50;0.50;;;1.10;99.90;;;;;;6214547;23;20032;-75
2023/03/12 06:29:46;;;;;;;0.50;0.50;;;1.20;99.90;;;;;;6216267;23;20009;-74
2023/03/12 06:32:12;;;;;;;0.50;0.50;;;1.10;99.90;;;;;;6216540;23;20013;-75
2023/03/12 06:34:37;;;;;;;0.50;0.50;;;1.20;99.90;;;;;;6216422;23;20008;-75
2023/03/12 06:37:04;;;;;;;0.40;0.40;;;1.20;99.90;;;;;;6214756;23;20016;-75
2023/03/12 06:39:29;;;;;;;0.63;0.63;;;1.20;99.90;;;;;;6214631;23;20075;-75
2023/03/12 06:41:55;;;;;;;0.60;0.60;;;1.30;99.90;;;;;;6216476;23;20170;-75
2023/03/12 06:44:21;;;;;;;0.50;0.50;;;1.20;99.90;;;;;;6240274;23;20330;-75
2023/03/12 06:46:46;;;;;;;0.50;0.50;;;1.30;99.90;;;;;;6216629;23;20017;-75
2023/03/12 06:49:13;;;;;;;0.52;0.52;;;1.30;99.90;;;;;;6216360;23;20012;-75
2023/03/12 06:51:38;;;;;;;0.45;0.45;;;1.40;99.90;;;;;;6216342;23;20063;-75
2023/03/12 06:54:04;;;;;;;0.50;0.50;;;1.50;99.90;;;;;;6216019;23;20021;-75
2023/03/12 06:56:30;;;;;;;0.50;0.50;;;1.50;99.90;;;;;;6216256;23;20460;-75
2023/03/12 06:58:56;;;;;;;0.50;0.50;;;1.60;99.90;;;;;;6214236;23;20034;-75
2023/03/12 07:01:22;;;;;;;0.40;0.40;;;1.60;99.90;;;;;;6214486;23;20012;-75
2023/03/12 07:03:48;;;;;;;0.50;0.50;;;1.60;99.90;;;;;;6189264;23;20104;-75
2023/03/12 07:06:16;;;;;;;0.50;0.50;;;1.60;99.90;;;;;;6216136;23;20099;-75
2023/03/12 07:08:43;;;;;;;0.40;0.40;;;1.60;99.90;;;;;;6216172;23;20031;-75
2023/03/12 07:11:08;;;;;;;0.60;0.60;;;1.70;99.90;;;;;;6189075;23;20013;-75
2023/03/12 07:13:34;;;;;;;0.60;0.60;;;1.70;99.90;;;;;;6214231;23;20020;-75
2023/03/12 07:16:01;;;;;;;0.47;0.47;;;1.80;99.90;;;;;;6189322;23;20012;-74
2023/03/12 07:18:28;;;;;;;0.60;0.60;;;1.80;99.90;;;;;;6216144;23;20071;-74
2023/03/12 07:20:54;;;;;;;0.55;0.55;;;1.90;99.90;;;;;;6189226;23;20017;-75
2023/03/12 07:23:20;;;;;;;0.50;0.50;;;1.90;99.90;;;;;;6214169;23;20480;-75
2023/03/12 07:25:46;;;;;;;0.60;0.60;;;2.00;99.90;;;;;;6216082;23;20021;-75
2023/03/12 07:28:13;;;;;;;0.60;0.60;;;2.10;99.90;;;;;;6214114;23;20009;-75
2023/03/12 07:30:39;;;;;;;0.50;0.50;;;2.00;99.90;;;;;;6215538;23;20015;-75
2023/03/12 07:33:11;;;;;;;0.60;0.60;;;2.00;99.90;;;;;;6239984;23;20008;-75
2023/03/12 07:35:38;;;;;;;0.50;0.50;;;2.10;99.90;;;;;;6216023;23;20034;-75
2023/03/12 07:38:04;;;;;;;0.40;0.40;;;2.00;99.90;;;;;;6189054;23;20322;-75
2023/03/12 07:40:30;;;;;;;0.47;0.47;;;1.90;99.90;;;;;;6215984;23;20054;-76
2023/03/12 07:42:56;;;;;;;0.47;0.47;;;1.90;99.90;;;;;;6214030;23;20016;-76
2023/03/12 07:45:23;;;;;;;0.50;0.50;;;1.80;99.90;;;;;;6214166;23;20056;-77
2023/03/12 07:47:48;;;;;;;0.50;0.50;;;1.90;99.90;;;;;;6189554;23;20078;-76
2023/03/12 07:50:14;;;;;;;0.50;0.50;;;2.00;99.90;;;;;;6190594;23;20048;-76
2023/03/12 07:52:40;;;;;;;0.50;0.50;;;1.90;99.90;;;;;;6215684;23;20051;-76
2023/03/12 07:55:06;;;;;;;0.50;0.50;;;1.90;99.90;;;;;;6190579;23;20402;-76
2023/03/12 07:57:32;;;;;;;0.47;0.47;;;2.00;99.90;;;;;;6215997;23;20016;-76
2023/03/12 07:59:58;;;;;;;0.60;0.60;;;2.10;99.90;;;;;;6218284;23;20326;-76
2023/03/12 08:02:24;;;;;;;0.50;0.50;;;2.00;99.90;;;;;;6217678;23;20024;-76
2023/03/12 08:04:50;;;;;;;0.50;0.50;;;2.00;99.90;;;;;;6215826;23;20071;-76
2023/03/12 08:07:16;;;;;;;0.50;0.50;;;2.00;99.90;;;;;;6215703;23;20341;-77
2023/03/12 08:09:41;;;;;;;0.57;0.57;;;2.00;99.90;;;;;;6217472;23;20449;-76
2023/03/12 08:12:07;;;;;;;0.50;0.50;;;2.00;99.90;;;;;;6215437;23;20013;-76
2023/03/12 08:14:33;;;;;;;0.60;0.60;;;2.00;99.90;;;;;;6215582;23;20083;-74
2023/03/12 08:17:00;;;;;;;0.50;0.50;;;2.00;99.90;;;;;;6215711;23;20098;-74
2023/03/12 08:19:26;;;;;;;0.60;0.60;;;1.90;99.90;;;;;;6190543;23;20030;-74
2023/03/12 08:21:52;;;;;;;0.52;0.52;;;1.80;99.90;;;;;;6215508;23;20024;-74
2023/03/12 08:24:19;;;;;;;0.60;0.60;;;1.80;99.90;;;;;;6215911;23;20017;-74
2023/03/12 08:26:45;;;;;;;0.52;0.52;;;1.90;99.90;;;;;;6215950;23;20013;-74
2023/03/12 08:29:10;;;;;;;0.40;0.40;;;2.00;99.90;;;;;;6215464;23;20341;-73
2023/03/12 08:31:36;;;;;;;0.52;0.52;;;1.90;99.90;;;;;;6215499;23;20314;-73
2023/03/12 08:34:02;;;;;;;0.50;0.50;;;1.90;99.90;;;;;;6217330;23;20067;-74
2023/03/12 08:36:28;;;;;;;0.60;0.60;;;1.90;99.90;;;;;;6215444;23;20051;-73
2023/03/12 08:38:53;;;;;;;0.50;0.50;;;2.00;99.90;;;;;;6217313;23;20013;-74
2023/03/12 08:41:20;;;;;;;0.50;0.50;;;1.90;99.90;;;;;;6215350;23;20009;-74
2023/03/12 08:43:45;;;;;;;0.65;0.65;;;1.90;99.90;;;;;;6215519;23;20027;-74
2023/03/12 08:46:11;;;;;;;0.40;0.40;;;2.00;99.90;;;;;;6215658;23;20004;-74
2023/03/12 08:48:37;;;;;;;0.60;0.60;;;2.00;99.90;;;;;;6215358;23;20009;-74
2023/03/12 08:51:04;;;;;;;0.50;0.50;;;2.00;99.90;;;;;;6215272;23;20318;-71
2023/03/12 08:53:31;;;;;;;0.40;0.40;;;1.90;99.90;;;;;;6216969;23;20004;-74
2023/03/12 08:55:57;;;;;;;0.57;0.57;;;1.90;99.90;;;;;;6216839;23;20018;-71
2023/03/12 08:58:24;;;;;;;0.50;0.50;;;2.00;99.90;;;;;;6217040;23;20040;-73
2023/03/12 09:00:50;;;;;;;0.40;0.40;;;2.00;99.90;;;;;;6216608;23;20013;-74
2023/03/12 09:03:16;;;;;;;0.50;0.50;;;2.00;99.90;;;;;;6190275;23;20017;-75
2023/03/12 09:05:43;;;;;;;0.40;0.40;;;2.00;99.90;;;;;;6215172;23;20048;-74
2023/03/12 09:08:10;;;;;;;0.63;0.63;;;2.00;99.90;;;;;;6216904;23;20026;-74
2023/03/12 09:10:36;;;;;;;0.40;0.40;;;2.00;99.90;;;;;;6189913;23;20092;-74
2023/03/12 09:13:02;;;;;;;0.50;0.50;;;2.20;99.90;;;;;;6216967;23;20004;-74
2023/03/12 09:15:28;;;;;;;0.50;0.50;;;2.20;99.90;;;;;;6214955;23;20012;-75
2023/03/12 09:17:54;;;;;;;0.50;0.50;;;2.30;99.90;;;;;;6190017;23;20012;-75
2023/03/12 09:20:20;;;;;;;0.60;0.60;;;2.30;99.90;;;;;;6216785;23;20036;-75
2023/03/12 09:22:46;;;;;;;0.50;0.50;;;2.20;99.90;;;;;;6189742;23;20028;-74
2023/03/12 09:25:12;;;;;;;0.50;0.50;;;2.20;99.90;;;;;;6214880;23;20047;-76
2023/03/12 09:27:43;;;;;;;0.50;0.50;;;2.20;99.90;;;;;;6216852;23;20005;-76
2023/03/12 09:30:12;;;;;;;0.40;0.40;;;2.20;99.90;;;;;;6214902;23;20036;-76
2023/03/12 09:32:38;;;;;;;0.50;0.50;;;2.20;99.90;;;;;;6215028;23;20013;-75
2023/03/12 09:35:05;;;;;;;0.60;0.60;;;2.20;99.90;;;;;;6216278;23;20032;-74
2023/03/12 09:37:31;;;;;;;0.50;0.50;;;2.30;99.90;;;;;;6214799;23;20449;-75
2023/03/12 09:39:57;;;;;;;0.50;0.50;;;2.30;99.90;;;;;;6214879;23;20044;-71
2023/03/12 09:42:34;;;;;;;0.50;0.50;;;2.20;99.90;;;;;;6214874;23;20063;-73
2023/03/12 09:45:03;;;;;;;0.50;0.50;;;2.20;99.90;;;;;;6216611;23;20308;-72
2023/03/12 09:47:32;;;;;;;0.50;0.50;;;2.20;99.90;;;;;;6240541;23;20005;-67
2023/03/12 09:50:20;;;;;;;0.60;0.60;;;2.40;99.90;;;;;;6216653;23;20276;-71
2023/03/12 09:52:57;;;;;;;0.50;0.50;;;2.30;99.90;;;;;;6216407;23;20004;-70
2023/03/12 09:55:23;;;;;;;0.40;0.40;;;2.40;99.90;;;;;;6214833;23;20021;-77
2023/03/12 09:57:50;;;;;;;0.45;0.45;;;2.40;99.90;;;;;;6216652;23;20015;-73
2023/03/12 10:00:22;;;;;;;0.50;0.50;;;2.50;99.90;;;;;;6216676;23;20076;-73
2023/03/12 10:03:04;;;;;;;0.60;0.60;;;2.40;99.90;;;;;;6215263;23;20012;-73
2023/03/12 10:05:45;;;;;;;0.50;0.50;;;2.50;99.90;;;;;;6216658;23;20016;-72
2023/03/12 10:08:10;;;;;;;;;;;2.40;99.90;;;;;;6217156;23;20013;-73
2023/03/12 10:10:56;;;;;;;0.40;0.40;;;2.40;99.90;;;;;;6214695;23;19920;-72
2023/03/12 10:13:52;;;;;;;0.50;0.50;;;2.50;99.90;;;;;;6214670;23;20012;-73
2023/03/12 10:17:08;;;;;;;0.50;0.50;;;2.40;99.90;;;;;;6240619;23;20013;-73
2023/03/12 10:19:45;;;;;;;0.60;0.60;;;2.60;99.90;;;;;;6124518;23;20018;-77
2023/03/12 10:22:34;;;;;;;0.50;0.50;;;2.40;99.90;;;;;;6124486;23;20018;-78
2023/03/12 10:25:20;;;;;;;0.60;0.60;;;2.60;99.90;;;;;;6099882;23;20018;-76
2023/03/12 10:27:47;;;;;;;0.47;0.47;;;2.60;99.90;;;;;;6124322;23;20022;-77
2023/03/12 10:30:24;;;;;;;0.50;0.50;;;2.60;99.90;;;;;;6099913;23;20029;-78
2023/03/12 10:32:58;;;;;;;0.50;0.50;;;2.60;99.90;;;;;;6124343;23;20053;-78
2023/03/12 10:35:27;;;;;;;0.50;0.50;;;2.60;99.90;;;;;;6099965;23;20076;-77
2023/03/12 10:38:00;;;;;;;0.50;0.50;;;2.60;99.90;;;;;;6099671;23;20160;-78
2023/03/12 10:40:28;;;;;;;0.40;0.40;;;2.50;99.90;;;;;;6099929;23;20375;-73
2023/03/12 10:42:54;;;;;;;0.50;0.50;;;2.70;99.90;;;;;;6099847;23;20491;-72
2023/03/12 10:45:46;;;;;;;0.40;0.40;;;2.60;99.90;;;;;;6124123;23;20022;-70
2023/03/12 10:48:19;;;;;;;0.50;0.50;;;2.50;99.90;;;;;;6118910;23;20038;-80
2023/03/12 10:51:06;;;;;;;0.55;0.55;;;2.70;99.90;;;;;;6124672;23;20380;-69
2023/03/12 10:53:34;;;;;;;0.50;0.50;;;2.70;99.90;;;;;;6099431;23;20018;-72
2023/03/12 10:56:19;;;;;;;0.50;0.50;;;2.60;99.90;;;;;;6215057;23;20023;-91
2023/03/12 10:58:51;;;;;;;0.50;0.50;;;2.70;99.90;;;;;;6216163;23;20019;-80
2023/03/12 11:01:21;;;;;;;0.45;0.45;;;2.80;99.90;;;;;;6189386;23;20099;-80
2023/03/12 11:03:50;;;;;;;0.57;0.57;;;2.90;99.90;;;;;;6216347;23;20020;-80
2023/03/12 11:06:29;;;;;;;0.50;0.50;;;2.90;99.90;;;;;;6214267;23;20013;-80
2023/03/12 11:09:09;;;;;;;0.50;0.50;;;2.80;99.90;;;;;;6214617;23;20024;-80
2023/03/12 11:11:35;;;;;;;0.50;0.50;;;3.00;99.90;;;;;;6216167;23;20096;-80
2023/03/12 11:14:25;;;;;;;0.57;0.57;;;3.00;99.90;;;;;;6214276;23;20476;-80
2023/03/12 11:16:52;;;;;;;0.50;0.50;;;3.10;99.90;;;;;;6213437;23;20091;-80
2023/03/12 11:19:31;;;;;;;0.40;0.40;;;3.20;99.90;;;;;;6239937;23;20076;-80
2023/03/12 11:22:00;;;;;;;0.47;0.47;;;3.00;99.90;;;;;;6214199;23;20400;-80
2023/03/12 11:24:26;;;;;;;0.50;0.50;;;3.00;99.90;;;;;;6217955;23;20015;-80
2023/03/12 11:26:58;;;;;;;0.43;0.43;;;3.20;99.90;;;;;;6216126;23;20064;-80
2023/03/12 11:29:27;;;;;;;0.50;0.50;;;3.30;99.90;;;;;;6217969;23;20008;-80
2023/03/12 11:32:16;;;;;;;0.50;0.50;;;3.10;99.90;;;;;;6216330;23;20020;-80
2023/03/12 11:34:42;;;;;;;0.50;0.50;;;3.10;99.90;;;;;;6077458;23;20097;-80
2023/03/12 11:37:13;;;;;;;0.50;0.50;;;3.40;99.90;;;;;;6101536;23;20113;-80
2023/03/12 11:40:11;;;;;;;0.50;0.50;;;3.50;99.90;;;;;;6125878;23;20014;-80
2023/03/12 11:42:48;;;;;;;0.52;0.52;;;3.30;99.90;;;;;;6101353;23;20022;-80
2023/03/12 11:45:16;;;;;;;0.50;0.50;;;3.30;99.90;;;;;;6101545;23;20432;-80
2023/03/12 11:47:54;;;;;;;0.50;0.50;;;3.60;99.90;;;;;;6101381;23;20021;-80
2023/03/12 11:50:35;;;;;;;0.57;0.57;;;3.60;99.90;;;;;;6101148;23;20013;-80
2023/03/12 11:53:35;;;;;;;0.60;0.60;;;3.60;99.90;;;;;;6101387;23;20018;-80
2023/03/12 11:56:32;;;;;;;0.40;0.40;;;3.50;99.90;;;;;;6075377;23;20056;-80
2023/03/12 11:59:19;;;;;;;0.50;0.50;;;3.70;99.90;;;;;;6100856;23;20117;-80
2023/03/12 12:01:57;;;;;;;0.50;0.50;;;3.70;99.90;;;;;;6101166;23;20010;-79
2023/03/12 12:04:46;;;;;;;0.50;0.50;;;3.80;99.90;;;;;;6077105;23;20438;-79
2023/03/12 12:07:47;;;;;;;0.50;0.50;;;3.80;99.90;;;;;;6101018;23;20014;-80
2023/03/12 12:10:28;;;;;;;;;;;4.10;99.90;;;;;;6072586;23;20370;-80
2023/03/12 12:13:08;;;;;;;0.50;0.43;;;4.10;99.90;;;;;;6135250;23;19952;-80
2023/03/12 12:15:36;;;;;;;0.40;0.40;;;3.90;99.90;;;;;;6135110;23;20460;-80
2023/03/12 12:18:13;;;;;;;0.60;0.60;;;4.00;99.90;;;;;;6135164;23;20013;-80
2023/03/12 12:20:52;;;;;;;0.43;0.43;;;4.00;99.90;;;;;;6160147;23;20128;-80
2023/03/12 12:23:24;;;;;;;0.60;0.60;;;4.20;99.90;;;;;;6159991;23;20013;-80
2023/03/12 12:26:08;;;;;;;0.50;0.50;;;4.00;99.90;;;;;;6184713;23;20079;-80
2023/03/12 12:28:42;;;;;;;0.50;0.50;;;4.20;99.90;;;;;;6135177;23;20052;-80
2023/03/12 12:31:40;;;;;;;0.52;0.52;;;4.30;99.90;;;;;;6184461;23;20386;-79
2023/03/12 12:34:33;;;;;;;0.60;0.60;;;4.50;99.90;;;;;;6160830;23;20453;-80
2023/03/12 12:37:13;;;;;;;0.40;0.40;;;4.30;99.90;;;;;;6159558;23;20041;-80
2023/03/12 12:39:47;;;;;;;0.60;0.60;;;4.40;99.90;;;;;;6185102;23;20052;-80
2023/03/12 12:42:19;;;;;;;0.60;0.60;;;4.40;99.90;;;;;;6159633;23;20464;-80
2023/03/12 12:44:52;;;;;;;0.52;0.52;;;4.60;99.90;;;;;;6137874;23;20049;-80
2023/03/12 12:47:48;;;;;;;0.45;0.45;;;4.80;99.90;;;;;;6215548;23;20381;-79
2023/03/12 12:50:19;;;;;;;0.50;0.50;;;4.60;99.90;;;;;;6208371;23;20008;-80
2023/03/12 12:52:51;;;;;;;0.50;0.50;;;4.90;99.90;;;;;;6215751;23;20017;-79
2023/03/12 12:55:37;;;;;;;0.47;0.47;;;4.80;99.90;;;;;;6214922;23;20012;-79
2023/03/12 12:58:33;;;;;;;0.60;0.60;;;4.90;99.90;;;;;;6215283;23;20077;-79
2023/03/12 13:01:00;;;;;;;0.52;0.52;;;5.20;99.90;;;;;;6188790;23;20100;-80
2023/03/12 13:03:28;;;;;;;0.50;0.50;;;5.20;99.90;;;;;;6217217;23;20391;-81
2023/03/12 13:05:55;;;;;;;0.50;0.50;;;5.50;99.90;;;;;;6215485;23;20012;-80
2023/03/12 13:08:39;;;;;;;0.50;0.50;;;5.50;99.90;;;;;;6215269;23;20334;-81